createdAt,value
2023-07-08T00:01:11.748Z,100.00
2023-07-08T00:03:38.464Z,100.00
2023-07-08T00:06:05.081Z,100.00
2023-07-08T00:08:31.537Z,100.00
2023-07-08T00:10:58.875Z,100.00
2023-07-08T00:13:27.928Z,100.00
2023-07-08T00:15:54.647Z,100.00
2023-07-08T00:18:21.405Z,100.00
2023-07-08T00:20:50.347Z,100.00
2023-07-08T00:23:17.680Z,100.00
2023-07-08T00:25:44.611Z,100.00
2023-07-08T00:28:14.936Z,100.00
2023-07-08T00:30:41.536Z,100.00
2023-07-08T00:33:08.371Z,100.00
2023-07-08T00:35:37.545Z,100.00
2023-07-08T00:38:28.275Z,100.00
2023-07-08T00:41:11.053Z,100.00
2023-07-08T00:43:39.061Z,100.00
2023-07-08T00:46:28.478Z,100.00
2023-07-08T00:49:15.375Z,100.00
2023-07-08T00:51:42.688Z,100.00
2023-07-08T00:54:13.995Z,99.69
2023-07-08T00:57:03.992Z,98.32
2023-07-08T00:59:33.082Z,100.00
2023-07-08T01:02:03.150Z,97.34
2023-07-08T01:04:36.081Z,88.98
2023-07-08T01:07:04.357Z,87.40
2023-07-08T01:09:43.079Z,93.84
2023-07-08T01:12:15.689Z,99.88
2023-07-08T01:14:44.418Z,99.98
2023-07-08T01:17:14.916Z,100.00
2023-07-08T01:19:46.018Z,100.00
2023-07-08T01:22:12.909Z,100.00
2023-07-08T01:24:44.563Z,100.00
2023-07-08T01:27:14.867Z,100.00
2023-07-08T01:29:41.778Z,100.00
2023-07-08T01:32:15.064Z,100.00
2023-07-08T01:34:41.579Z,100.00
2023-07-08T01:37:13.226Z,100.00
2023-07-08T01:39:39.834Z,100.00
2023-07-08T01:42:06.555Z,100.00
2023-07-08T01:44:35.444Z,100.00
2023-07-08T01:47:09.979Z,100.00
2023-07-08T01:49:39.658Z,100.00
2023-07-08T01:52:08.506Z,100.00
2023-07-08T01:54:35.096Z,100.00
2023-07-08T01:57:04.275Z,100.00
2023-07-08T01:59:30.768Z,100.00
2023-07-08T02:01:57.980Z,100.00
2023-07-08T02:04:26.003Z,100.00
2023-07-08T02:06:54.393Z,100.00
2023-07-08T02:09:21.725Z,100.00
2023-07-08T02:11:48.412Z,100.00
2023-07-08T02:14:15.535Z,100.00
2023-07-08T02:16:42.057Z,100.00
2023-07-08T02:19:09.058Z,100.00
2023-07-08T02:21:35.463Z,100.00
2023-07-08T02:24:02.773Z,100.00
2023-07-08T02:26:29.236Z,100.00
2023-07-08T02:28:55.715Z,100.00
2023-07-08T02:31:25.800Z,100.00
2023-07-08T02:33:53.200Z,100.00
2023-07-08T02:36:20.545Z,100.00
2023-07-08T02:38:47.037Z,100.00
2023-07-08T02:41:13.696Z,100.00
2023-07-08T02:43:40.489Z,100.00
2023-07-08T02:46:07.011Z,100.00
2023-07-08T02:48:33.864Z,100.00
2023-07-08T02:51:02.228Z,100.00
2023-07-08T02:53:29.023Z,100.00
2023-07-08T02:55:56.074Z,100.00
2023-07-08T02:58:22.588Z,100.00
2023-07-08T03:00:56.846Z,100.00
2023-07-08T03:03:23.931Z,100.00
2023-07-08T03:06:00.290Z,100.00
2023-07-08T03:08:28.283Z,100.00
2023-07-08T03:10:58.491Z,100.00
2023-07-08T03:13:26.200Z,100.00
2023-07-08T03:15:53.023Z,100.00
2023-07-08T03:18:22.372Z,100.00
2023-07-08T03:20:49.927Z,100.00
2023-07-08T03:23:16.900Z,100.00
2023-07-08T03:25:43.746Z,100.00
2023-07-08T03:28:16.277Z,100.00
2023-07-08T03:30:44.038Z,100.00
2023-07-08T03:33:11.413Z,100.00
2023-07-08T03:35:42.353Z,100.00
2023-07-08T03:38:08.796Z,100.00
2023-07-08T03:40:35.771Z,100.00
2023-07-08T03:43:02.626Z,100.00
2023-07-08T03:45:29.251Z,100.00
2023-07-08T03:47:55.924Z,100.00
2023-07-08T03:50:25.965Z,100.00
2023-07-08T03:52:54.379Z,100.00
2023-07-08T03:55:21.464Z,100.00
2023-07-08T03:57:49.086Z,100.00
2023-07-08T04:00:16.277Z,100.00
2023-07-08T04:02:44.354Z,100.00
2023-07-08T04:05:20.954Z,100.00
2023-07-08T04:07:48.743Z,100.00
2023-07-08T04:10:16.559Z,100.00
2023-07-08T04:12:43.896Z,100.00
2023-07-08T04:15:11.786Z,100.00
2023-07-08T04:17:46.366Z,100.00
2023-07-08T04:20:16.521Z,100.00
2023-07-08T04:22:43.385Z,100.00
2023-07-08T04:25:13.210Z,100.00
2023-07-08T04:27:40.860Z,100.00
2023-07-08T04:30:08.739Z,100.00
2023-07-08T04:32:35.791Z,100.00
2023-07-08T04:35:02.526Z,100.00
2023-07-08T04:37:29.033Z,100.00
2023-07-08T04:39:55.719Z,100.00
2023-07-08T04:42:22.244Z,100.00
2023-07-08T04:44:51.033Z,100.00
2023-07-08T04:47:17.811Z,100.00
2023-07-08T04:49:44.953Z,100.00
2023-07-08T04:52:11.774Z,100.00
2023-07-08T04:54:38.228Z,100.00
2023-07-08T04:57:05.906Z,100.00
2023-07-08T04:59:35.534Z,100.00
2023-07-08T05:02:02.854Z,100.00
2023-07-08T05:04:29.448Z,100.00
2023-07-08T05:06:56.552Z,100.00
2023-07-08T05:09:26.608Z,100.00
2023-07-08T05:11:54.030Z,100.00
2023-07-08T05:14:20.571Z,100.00
2023-07-08T05:16:47.287Z,100.00
2023-07-08T05:19:13.990Z,100.00
2023-07-08T05:21:41.002Z,100.00
2023-07-08T05:24:08.894Z,100.00
2023-07-08T05:26:35.551Z,100.00
2023-07-08T05:29:02.325Z,100.00
2023-07-08T05:33:59.449Z,100.00
2023-07-08T05:36:26.304Z,100.00
2023-07-08T05:38:52.758Z,100.00
2023-07-08T05:41:19.438Z,100.00
2023-07-08T05:43:47.707Z,100.00
2023-07-08T05:46:14.486Z,100.00
2023-07-08T05:48:41.582Z,100.00
2023-07-08T05:51:08.290Z,96.96
2023-07-08T05:53:34.944Z,100.00
2023-07-08T05:56:04.358Z,100.00
2023-07-08T05:58:31.102Z,100.00
2023-07-08T06:00:59.064Z,100.00
2023-07-08T06:03:26.496Z,100.00
2023-07-08T06:05:53.612Z,100.00
2023-07-08T06:08:20.920Z,79.29
2023-07-08T06:10:48.132Z,70.29
2023-07-08T06:13:14.870Z,61.82
2023-07-08T06:15:42.660Z,60.55
2023-07-08T06:18:09.505Z,59.85
2023-07-08T06:20:36.632Z,62.89
2023-07-08T06:23:03.945Z,57.30
2023-07-08T06:25:30.948Z,59.96
2023-07-08T06:27:57.487Z,52.56
2023-07-08T06:30:24.108Z,65.66
2023-07-08T06:32:50.667Z,56.45
2023-07-08T06:35:17.322Z,57.47
2023-07-08T06:37:44.136Z,58.07
2023-07-08T06:40:11.176Z,59.92
2023-07-08T06:42:37.783Z,58.36
2023-07-08T06:45:04.724Z,59.50
2023-07-08T06:47:31.254Z,64.08
2023-07-08T06:49:59.752Z,61.87
2023-07-08T06:52:27.386Z,61.64
2023-07-08T06:54:54.118Z,59.90
2023-07-08T06:57:20.532Z,61.80
2023-07-08T06:59:47.113Z,65.70
2023-07-08T07:02:14.464Z,64.55
2023-07-08T07:04:41.142Z,63.47
2023-07-08T07:07:07.693Z,65.83
2023-07-08T07:09:34.761Z,74.15
2023-07-08T07:12:01.496Z,69.33
2023-07-08T07:17:08.471Z,66.08
2023-07-08T07:19:36.091Z,64.17
2023-07-08T07:22:03.154Z,62.33
2023-07-08T07:24:30.676Z,62.29
2023-07-08T07:26:57.581Z,62.66
2023-07-08T07:29:25.015Z,62.43
2023-07-08T07:31:52.783Z,68.05
2023-07-08T07:34:19.969Z,58.81
2023-07-08T07:36:47.355Z,59.94
2023-07-08T07:39:14.177Z,61.88
2023-07-08T07:41:40.810Z,60.64
2023-07-08T07:44:08.170Z,58.86
2023-07-08T07:46:35.019Z,61.68
2023-07-08T07:49:02.896Z,59.41
2023-07-08T07:51:29.489Z,61.59
2023-07-08T07:53:56.578Z,63.11
2023-07-08T07:56:25.477Z,62.88
2023-07-08T07:58:53.622Z,62.50
2023-07-08T08:01:21.108Z,60.65
2023-07-08T08:03:51.944Z,60.13
2023-07-08T08:06:19.099Z,56.34
2023-07-08T08:08:46.480Z,56.46
2023-07-08T08:11:14.500Z,56.65
2023-07-08T08:13:41.343Z,57.30
2023-07-08T08:16:08.186Z,56.24
2023-07-08T08:18:35.307Z,54.65
2023-07-08T08:21:02.080Z,55.93
2023-07-08T08:23:29.193Z,56.49
2023-07-08T08:25:55.940Z,61.21
2023-07-08T08:28:23.221Z,57.32
2023-07-08T08:30:51.098Z,58.07
2023-07-08T08:33:19.572Z,60.07
2023-07-08T08:35:47.182Z,56.00
2023-07-08T08:38:14.103Z,60.80
2023-07-08T08:40:43.391Z,61.91
2023-07-08T08:43:23.718Z,59.89
2023-07-08T08:46:11.144Z,57.78
2023-07-08T08:48:50.836Z,59.46
2023-07-08T08:51:17.880Z,56.99
2023-07-08T08:53:47.070Z,63.26
2023-07-08T08:56:41.271Z,60.71
2023-07-08T08:59:27.689Z,60.54
2023-07-08T09:01:56.210Z,57.81
2023-07-08T09:04:30.420Z,55.07
2023-07-08T09:07:07.664Z,57.95
2023-07-08T09:09:50.834Z,54.60
2023-07-08T09:12:26.443Z,53.52
2023-07-08T09:14:53.105Z,55.25
2023-07-08T09:17:37.142Z,53.32
2023-07-08T09:20:05.068Z,52.34
2023-07-08T09:22:41.751Z,52.59
2023-07-08T09:25:29.973Z,54.82
2023-07-08T09:27:57.052Z,49.76
2023-07-08T09:30:25.983Z,48.46
2023-07-08T09:32:52.939Z,48.35
2023-07-08T09:35:26.842Z,49.11
2023-07-08T09:37:53.928Z,46.90
2023-07-08T09:40:22.759Z,48.70
2023-07-08T09:42:57.770Z,45.95
2023-07-08T09:45:25.904Z,51.86
2023-07-08T09:48:02.815Z,47.81
2023-07-08T09:50:32.953Z,48.16
2023-07-08T09:53:03.155Z,48.22
2023-07-08T09:55:30.042Z,45.48
2023-07-08T09:57:59.286Z,48.77
2023-07-08T10:00:41.371Z,45.45
2023-07-08T10:03:34.891Z,43.98
2023-07-08T10:06:15.571Z,43.25
2023-07-08T10:08:46.887Z,43.37
2023-07-08T10:11:35.580Z,43.26
2023-07-08T10:14:22.142Z,42.88
2023-07-08T10:16:48.826Z,44.46
2023-07-08T10:19:18.650Z,44.89
2023-07-08T10:21:52.131Z,46.04
2023-07-08T10:24:34.942Z,43.21
2023-07-08T10:27:33.785Z,43.03
2023-07-08T10:30:19.301Z,40.23
2023-07-08T10:33:16.420Z,45.69
2023-07-08T10:36:06.132Z,44.61
2023-07-08T10:38:47.979Z,43.44
2023-07-08T10:41:58.483Z,43.80
2023-07-08T10:44:31.051Z,44.05
2023-07-08T10:47:07.442Z,40.77
2023-07-08T10:49:50.625Z,40.51
2023-07-08T10:52:39.056Z,40.13
2023-07-08T10:55:08.969Z,40.72
2023-07-08T10:57:44.712Z,40.23
2023-07-08T11:00:28.694Z,39.83
2023-07-08T11:02:55.272Z,40.92
2023-07-08T11:05:41.355Z,39.01
2023-07-08T11:08:09.988Z,40.15
2023-07-08T11:11:13.880Z,38.35
2023-07-08T11:13:59.719Z,38.86
2023-07-08T11:16:38.093Z,39.64
2023-07-08T11:19:14.919Z,39.39
2023-07-08T11:21:47.379Z,41.06
2023-07-08T11:24:23.072Z,38.11
2023-07-08T11:27:11.514Z,39.15
2023-07-08T11:29:44.044Z,38.04
2023-07-08T11:32:16.123Z,38.83
2023-07-08T11:34:45.839Z,39.20
2023-07-08T11:37:14.603Z,39.00
2023-07-08T11:39:46.544Z,36.77
2023-07-08T11:42:37.616Z,36.76
2023-07-08T11:45:25.530Z,39.60
2023-07-08T11:47:52.252Z,37.58
2023-07-08T11:50:37.150Z,38.76
2023-07-08T11:53:08.854Z,39.82
2023-07-08T11:55:55.565Z,37.79
2023-07-08T11:58:24.793Z,38.95
2023-07-08T12:01:06.195Z,36.79
2023-07-08T12:03:38.729Z,37.99
2023-07-08T12:06:27.060Z,41.16
2023-07-08T12:09:14.235Z,40.60
2023-07-08T12:11:45.188Z,38.94
2023-07-08T12:14:12.345Z,38.97
2023-07-08T12:16:39.305Z,40.01
2023-07-08T12:19:10.342Z,36.82
2023-07-08T12:21:37.651Z,39.21
2023-07-08T12:24:06.382Z,39.60
2023-07-08T12:26:37.398Z,39.42
2023-07-08T12:29:04.118Z,37.31
2023-07-08T12:31:32.857Z,37.78
2023-07-08T12:33:59.967Z,36.31
2023-07-08T12:36:29.846Z,36.42
2023-07-08T12:38:58.931Z,36.26
2023-07-08T12:41:29.451Z,35.35
2023-07-08T12:43:56.600Z,38.56
2023-07-08T12:46:26.243Z,36.79
2023-07-08T12:48:53.547Z,36.72
2023-07-08T12:51:29.089Z,34.46
2023-07-08T12:53:56.463Z,34.45
2023-07-08T12:56:24.959Z,36.07
2023-07-08T12:58:54.632Z,34.82
2023-07-08T13:01:27.849Z,35.37
2023-07-08T13:04:00.161Z,37.85
2023-07-08T13:06:31.047Z,35.27
2023-07-08T13:09:09.472Z,37.89
2023-07-08T13:11:38.118Z,36.16
2023-07-08T13:14:07.959Z,38.19
2023-07-08T13:16:36.352Z,35.74
2023-07-08T13:19:04.314Z,35.82
2023-07-08T13:21:33.330Z,34.93
2023-07-08T13:24:00.128Z,34.24
2023-07-08T13:26:30.972Z,34.99
2023-07-08T13:29:17.959Z,38.68
2023-07-08T13:31:50.277Z,34.87
2023-07-08T13:34:19.879Z,34.80
2023-07-08T13:36:50.187Z,36.41
2023-07-08T13:39:33.639Z,36.18
2023-07-08T13:42:01.688Z,35.48
2023-07-08T13:44:28.829Z,33.87
2023-07-08T13:46:58.910Z,34.21
2023-07-08T13:49:32.345Z,35.36
2023-07-08T13:52:13.502Z,35.28
2023-07-08T13:54:45.319Z,39.28
2023-07-08T13:57:15.992Z,38.21
2023-07-08T13:59:42.983Z,35.53
2023-07-08T14:02:32.245Z,36.30
2023-07-08T14:05:00.914Z,35.44
2023-07-08T14:07:32.929Z,37.02
2023-07-08T14:09:59.710Z,35.39
2023-07-08T14:12:26.650Z,36.80
2023-07-08T14:14:53.477Z,35.82
2023-07-08T14:17:25.863Z,37.27
2023-07-08T14:19:53.066Z,34.52
2023-07-08T14:22:31.288Z,38.80
2023-07-08T14:25:05.666Z,38.58
2023-07-08T14:27:32.611Z,37.08
2023-07-08T14:29:59.060Z,37.09
2023-07-08T14:32:31.265Z,37.21
2023-07-08T14:35:20.120Z,37.42
2023-07-08T14:37:47.229Z,36.84
2023-07-08T14:40:21.222Z,36.19
2023-07-08T14:42:49.275Z,36.67
2023-07-08T14:45:17.367Z,36.49
2023-07-08T14:47:43.946Z,37.25
2023-07-08T14:50:15.725Z,35.51
2023-07-08T14:52:42.255Z,36.27
2023-07-08T14:55:10.933Z,37.22
2023-07-08T14:57:46.844Z,41.16
2023-07-08T15:00:19.141Z,37.31
2023-07-08T15:02:48.323Z,37.53
2023-07-08T15:05:25.449Z,39.00
2023-07-08T15:07:54.871Z,41.15
2023-07-08T15:10:25.925Z,38.59
2023-07-08T15:12:52.437Z,39.83
2023-07-08T15:15:31.110Z,39.80
2023-07-08T15:17:58.919Z,41.20
2023-07-08T15:20:26.292Z,42.19
2023-07-08T15:22:52.978Z,45.47
2023-07-08T15:25:20.276Z,43.08
2023-07-08T15:27:49.888Z,42.57
2023-07-08T15:30:20.233Z,41.06
2023-07-08T15:32:47.623Z,41.16
2023-07-08T15:35:19.823Z,41.66
2023-07-08T15:37:48.600Z,39.53
2023-07-08T15:40:18.269Z,41.80
2023-07-08T15:42:47.401Z,42.47
2023-07-08T15:45:16.767Z,41.15
2023-07-08T15:47:43.458Z,42.13
2023-07-08T15:50:16.076Z,44.09
2023-07-08T15:52:43.685Z,44.27
2023-07-08T15:55:12.704Z,41.70
2023-07-08T15:57:47.748Z,42.02
2023-07-08T16:00:21.920Z,41.66
2023-07-08T16:02:51.901Z,40.81
2023-07-08T16:05:20.650Z,40.74
2023-07-08T16:07:52.277Z,40.54
2023-07-08T16:10:19.184Z,41.10
2023-07-08T16:12:47.847Z,37.80
2023-07-08T16:15:17.160Z,37.28
2023-07-08T16:17:44.838Z,38.73
2023-07-08T16:20:21.708Z,37.24
2023-07-08T16:22:49.566Z,40.28
2023-07-08T16:25:18.423Z,40.21
2023-07-08T16:27:47.803Z,41.21
2023-07-08T16:30:17.369Z,40.84
2023-07-08T16:32:44.764Z,39.44
2023-07-08T16:35:15.876Z,40.47
2023-07-08T16:37:43.102Z,42.57
2023-07-08T16:40:21.215Z,42.92
2023-07-08T16:42:49.999Z,45.30
2023-07-08T16:45:19.257Z,40.88
2023-07-08T16:47:47.094Z,41.10
2023-07-08T16:50:16.706Z,43.95
2023-07-08T16:52:43.624Z,42.40
2023-07-08T16:55:16.252Z,44.17
2023-07-08T16:57:43.557Z,47.22
2023-07-08T17:00:16.539Z,48.26
2023-07-08T17:02:43.171Z,51.52
2023-07-08T17:05:31.785Z,52.33
2023-07-08T17:07:58.477Z,58.21
2023-07-08T17:10:25.367Z,62.54
2023-07-08T17:12:53.810Z,67.63
2023-07-08T17:15:22.955Z,77.25
2023-07-08T17:17:58.914Z,83.84
2023-07-08T17:20:30.278Z,91.24
2023-07-08T17:22:56.729Z,96.55
2023-07-08T17:25:25.565Z,90.73
2023-07-08T17:27:54.567Z,95.29
2023-07-08T17:30:22.390Z,90.88
2023-07-08T17:32:55.606Z,91.25
2023-07-08T17:35:26.080Z,92.80
2023-07-08T17:37:53.709Z,75.44
2023-07-08T17:40:22.612Z,79.10
2023-07-08T17:42:50.400Z,79.21
2023-07-08T17:45:20.335Z,74.13
2023-07-08T17:47:49.371Z,76.17
2023-07-08T17:50:18.665Z,75.04
2023-07-08T17:52:45.764Z,72.62
2023-07-08T17:55:12.921Z,72.99
2023-07-08T17:57:41.049Z,73.60
2023-07-08T18:00:15.002Z,73.92
2023-07-08T18:02:42.066Z,71.39
2023-07-08T18:05:21.619Z,73.76
2023-07-08T18:07:50.366Z,71.61
2023-07-08T18:10:19.008Z,71.16
2023-07-08T18:12:47.210Z,72.46
2023-07-08T18:15:28.756Z,80.09
2023-07-08T18:17:58.238Z,83.99
2023-07-08T18:20:37.230Z,88.36
2023-07-08T18:23:04.744Z,93.72
2023-07-08T18:25:36.016Z,93.48
2023-07-08T18:28:02.512Z,95.94
2023-07-08T18:30:30.280Z,96.37
2023-07-08T18:32:57.330Z,97.59
2023-07-08T18:35:29.530Z,100.00
2023-07-08T18:37:57.339Z,100.00
2023-07-08T18:40:37.685Z,100.00
2023-07-08T18:43:16.412Z,100.00
2023-07-08T18:45:43.345Z,100.00
2023-07-08T18:48:15.420Z,100.00
2023-07-08T18:50:44.343Z,100.00
2023-07-08T18:53:18.002Z,100.00
2023-07-08T18:55:46.051Z,100.00
2023-07-08T18:58:14.269Z,100.00
2023-07-08T19:00:42.424Z,100.00
2023-07-08T19:03:26.959Z,100.00
2023-07-08T19:05:54.778Z,100.00
2023-07-08T19:08:22.778Z,100.00
2023-07-08T19:10:55.669Z,100.00
2023-07-08T19:13:25.531Z,100.00
2023-07-08T19:15:53.569Z,100.00
2023-07-08T19:18:20.714Z,100.00
2023-07-08T19:20:48.872Z,100.00
2023-07-08T19:23:27.133Z,100.00
2023-07-08T19:25:54.385Z,100.00
2023-07-08T19:28:21.049Z,100.00
2023-07-08T19:30:53.584Z,100.00
2023-07-08T19:33:20.629Z,100.00
2023-07-08T19:35:48.183Z,100.00
2023-07-08T19:38:17.322Z,100.00
2023-07-08T19:40:52.904Z,100.00
2023-07-08T19:43:21.642Z,100.00
2023-07-08T19:45:48.506Z,100.00
2023-07-08T19:48:15.506Z,100.00
2023-07-08T19:50:42.239Z,100.00
2023-07-08T19:53:11.157Z,100.00
2023-07-08T19:55:38.417Z,100.00
2023-07-08T19:58:11.023Z,100.00
2023-07-08T20:00:44.400Z,100.00
2023-07-08T20:03:12.483Z,100.00
2023-07-08T20:05:39.996Z,100.00
2023-07-08T20:08:21.743Z,100.00
2023-07-08T20:10:55.153Z,100.00
2023-07-08T20:13:26.830Z,100.00
2023-07-08T20:15:53.329Z,100.00
2023-07-08T20:18:28.292Z,100.00
2023-07-08T20:20:58.952Z,100.00
2023-07-08T20:23:27.165Z,100.00
2023-07-08T20:25:54.323Z,100.00
2023-07-08T20:28:31.590Z,100.00
2023-07-08T20:31:04.487Z,100.00
2023-07-08T20:33:31.215Z,100.00
2023-07-08T20:35:57.783Z,100.00
2023-07-08T20:38:24.589Z,100.00
2023-07-08T20:40:51.156Z,100.00
2023-07-08T20:43:21.373Z,100.00
2023-07-08T20:45:54.729Z,100.00
2023-07-08T20:48:24.732Z,100.00
2023-07-08T20:50:52.174Z,100.00
2023-07-08T20:53:19.786Z,100.00
2023-07-08T20:55:48.272Z,100.00
2023-07-08T20:58:20.921Z,100.00
2023-07-08T21:00:48.420Z,100.00
2023-07-08T21:03:19.666Z,100.00
2023-07-08T21:05:52.640Z,100.00
2023-07-08T21:08:40.551Z,100.00
2023-07-08T21:11:08.259Z,100.00
2023-07-08T21:13:39.034Z,100.00
2023-07-08T21:16:15.896Z,100.00
2023-07-08T21:18:42.664Z,100.00
2023-07-08T21:21:11.653Z,100.00
2023-07-08T21:23:39.382Z,100.00
2023-07-08T21:26:17.005Z,100.00
2023-07-08T21:28:46.761Z,100.00
2023-07-08T21:31:14.346Z,100.00
2023-07-08T21:33:40.872Z,100.00
2023-07-08T21:36:22.021Z,100.00
2023-07-08T21:38:48.498Z,100.00
2023-07-08T21:41:15.532Z,100.00
2023-07-08T21:43:42.191Z,100.00
2023-07-08T21:46:09.102Z,100.00
2023-07-08T21:48:36.220Z,100.00
2023-07-08T21:51:03.447Z,100.00
2023-07-08T21:53:38.077Z,100.00
2023-07-08T21:56:05.173Z,100.00
2023-07-08T21:58:32.324Z,100.00
2023-07-08T22:00:58.882Z,100.00
2023-07-08T22:03:30.997Z,100.00
2023-07-08T22:05:59.093Z,100.00
2023-07-08T22:08:28.147Z,100.00
2023-07-08T22:10:58.482Z,100.00
2023-07-08T22:13:32.562Z,100.00
2023-07-08T22:16:14.801Z,100.00
2023-07-08T22:18:45.386Z,100.00
2023-07-08T22:21:31.705Z,100.00
2023-07-08T22:23:59.896Z,100.00
2023-07-08T22:26:27.659Z,100.00
2023-07-08T22:28:54.160Z,100.00
2023-07-08T22:31:23.741Z,100.00
2023-07-08T22:33:50.588Z,100.00
2023-07-08T22:36:17.150Z,100.00
2023-07-08T22:38:47.260Z,100.00
2023-07-08T22:41:13.822Z,100.00
2023-07-08T22:43:40.893Z,100.00
2023-07-08T22:46:09.812Z,100.00
2023-07-08T22:48:38.860Z,100.00
2023-07-08T22:51:05.924Z,100.00
2023-07-08T22:53:35.231Z,100.00
2023-07-08T22:56:03.349Z,100.00
2023-07-08T22:58:33.453Z,100.00
2023-07-08T23:01:00.281Z,100.00
2023-07-08T23:03:26.928Z,100.00
2023-07-08T23:05:59.623Z,100.00
2023-07-08T23:08:29.079Z,100.00
2023-07-08T23:10:56.011Z,100.00
2023-07-08T23:13:36.507Z,100.00
2023-07-08T23:16:23.966Z,100.00
2023-07-08T23:18:52.817Z,100.00
2023-07-08T23:21:21.073Z,100.00
2023-07-08T23:23:50.785Z,100.00
2023-07-08T23:26:21.214Z,100.00
2023-07-08T23:28:53.213Z,100.00
2023-07-08T23:31:20.120Z,100.00
2023-07-08T23:33:47.644Z,100.00
2023-07-08T23:36:39.276Z,100.00
2023-07-08T23:39:18.430Z,100.00
2023-07-08T23:41:45.684Z,100.00
2023-07-08T23:44:13.216Z,100.00
2023-07-08T23:46:40.814Z,100.00
2023-07-08T23:49:23.461Z,100.00
2023-07-08T23:51:50.597Z,100.00
2023-07-08T23:54:21.314Z,100.00
2023-07-08T23:56:47.954Z,100.00
2023-07-08T23:59:17.241Z,100.00
